Time;durP1;ratioP1;P1;durP2;ratioP2;P2;SDS_P1;SDS_P2;PMS_P1;PMS_P2;Temp;Humidity;BMP_temperature;BMP_pressure;BME280_temperature;BME280_humidity;BME280_pressure;Samples;Min_cycle;Max_cycle;Signal;HPM_P1;HPM_P2
2022/03/31 00:00:20;;;;;;;2.88;0.60;;;;;;;;;;5052035;28;20383;-73
2022/03/31 00:02:46;;;;;;;4.32;0.70;;;;;;;;;;5063897;28;20040;-73
2022/03/31 00:05:13;;;;;;;2.97;0.70;;;;;;;;;;5062638;28;20060;-73
2022/03/31 00:07:48;;;;;;;2.90;0.65;;;;;;;;;;5046425;28;20090;-73
2022/03/31 00:10:15;;;;;;;2.13;0.55;;;;;;;;;;5060382;28;20048;-73
2022/03/31 00:12:41;;;;;;;1.65;0.50;;;;;;;;;;5062384;28;20043;-73
2022/03/31 00:15:07;;;;;;;2.13;0.60;;;;;;;;;;5061672;28;20044;-73
2022/03/31 00:17:34;;;;;;;1.05;0.50;;;;;;;;;;5063525;28;20033;-73
2022/03/31 00:20:00;;;;;;;4.18;0.68;;;;;;;;;;5062198;28;20036;-73
2022/03/31 00:34:41;;;;;;;1.42;0.60;;;;;;;;;;5061602;28;20105;-73
2022/03/31 00:37:27;;;;;;;1.50;0.60;;;;;;;;;;5062713;28;20052;-73
2022/03/31 00:39:54;;;;;;;1.40;0.57;;;;;;;;;;5054670;28;20071;-73
2022/03/31 00:42:21;;;;;;;1.35;0.50;;;;;;;;;;5063055;28;20602;-73
2022/03/31 00:44:48;;;;;;;2.67;0.65;;;;;;;;;;5061771;28;20036;-73
2022/03/31 00:47:15;;;;;;;1.17;0.52;;;;;;;;;;5046520;28;20071;-73
2022/03/31 00:49:41;;;;;;;2.45;0.55;;;;;;;;;;5061552;28;20036;-73
2022/03/31 00:52:08;;;;;;;1.10;0.45;;;;;;;;;;5045994;28;20037;-73
2022/03/31 00:54:34;;;;;;;2.78;0.63;;;;;;;;;;5060972;28;20040;-73
2022/03/31 00:57:02;;;;;;;1.40;0.60;;;;;;;;;;5061738;28;20075;-73
2022/03/31 00:59:29;;;;;;;3.17;0.70;;;;;;;;;;5045423;28;20119;-73
2022/03/31 01:01:56;;;;;;;2.33;0.65;;;;;;;;;;5062198;28;20076;-73
2022/03/31 01:04:22;;;;;;;2.22;1.00;;;;;;;;;;5061063;28;20036;-73
2022/03/31 01:06:49;;;;;;;2.72;0.55;;;;;;;;;;5062199;28;20056;-73
2022/03/31 01:09:15;;;;;;;2.53;0.60;;;;;;;;;;5061340;28;20052;-73
2022/03/31 01:11:41;;;;;;;2.05;0.60;;;;;;;;;;5061618;28;20038;-73
2022/03/31 01:14:08;;;;;;;1.83;0.60;;;;;;;;;;5062395;28;20043;-73
2022/03/31 01:16:34;;;;;;;2.22;0.70;;;;;;;;;;5060694;28;20102;-73
2022/03/31 01:19:07;;;;;;;1.10;0.50;;;;;;;;;;5062457;28;20109;-73
2022/03/31 01:21:38;;;;;;;1.35;0.50;;;;;;;;;;5060869;28;20628;-73
2022/03/31 01:24:06;;;;;;;2.45;0.73;;;;;;;;;;5062198;28;20091;-73
2022/03/31 01:26:33;;;;;;;2.42;0.60;;;;;;;;;;5059776;28;20568;-73
2022/03/31 01:28:59;;;;;;;1.50;0.50;;;;;;;;;;5062059;28;20052;-73
2022/03/31 01:31:26;;;;;;;2.72;0.70;;;;;;;;;;5044609;28;20115;-73
2022/03/31 01:33:53;;;;;;;1.92;0.60;;;;;;;;;;5062001;28;20128;-73
2022/03/31 01:36:19;;;;;;;3.30;0.80;;;;;;;;;;5060292;28;20093;-73
2022/03/31 01:38:46;;;;;;;2.42;0.70;;;;;;;;;;5061997;28;20120;-73
2022/03/31 01:41:12;;;;;;;1.95;0.63;;;;;;;;;;5060130;28;20044;-74
2022/03/31 01:43:38;;;;;;;3.85;0.80;;;;;;;;;;5062374;28;20036;-73
2022/03/31 01:46:07;;;;;;;1.95;0.70;;;;;;;;;;5060554;28;20101;-73
2022/03/31 01:48:34;;;;;;;1.58;0.50;;;;;;;;;;5045448;28;20037;-73
2022/03/31 01:51:00;;;;;;;1.67;0.60;;;;;;;;;;5061122;28;20451;-73
2022/03/31 01:53:26;;;;;;;2.65;0.60;;;;;;;;;;5060631;28;20044;-73
2022/03/31 01:55:52;;;;;;;2.22;0.80;;;;;;;;;;5043220;28;20053;-73
2022/03/31 01:58:18;;;;;;;3.45;0.85;;;;;;;;;;5049277;28;20045;-73
2022/03/31 02:00:44;;;;;;;2.47;0.77;;;;;;;;;;5053828;28;20039;-73
2022/03/31 02:03:10;;;;;;;2.25;0.80;;;;;;;;;;5044958;28;20044;-73
2022/03/31 02:05:36;;;;;;;1.80;0.68;;;;;;;;;;5043733;28;20044;-73
2022/03/31 02:08:03;;;;;;;2.15;0.77;;;;;;;;;;5061860;28;20043;-74
2022/03/31 02:10:29;;;;;;;2.03;0.70;;;;;;;;;;5059687;28;20143;-74
2022/03/31 02:12:55;;;;;;;2.20;0.77;;;;;;;;;;5045211;28;20629;-73
2022/03/31 02:15:22;;;;;;;2.30;0.80;;;;;;;;;;5060058;28;20051;-74
2022/03/31 02:17:48;;;;;;;2.38;0.70;;;;;;;;;;5045019;28;20043;-73
2022/03/31 02:20:14;;;;;;;2.78;0.70;;;;;;;;;;5060034;28;20040;-73
2022/03/31 02:22:41;;;;;;;1.95;0.68;;;;;;;;;;5061700;28;20079;-73
2022/03/31 02:25:08;;;;;;;4.45;1.10;;;;;;;;;;5059144;28;20041;-73
2022/03/31 02:27:38;;;;;;;3.40;0.80;;;;;;;;;;5044721;28;20033;-74
2022/03/31 02:30:05;;;;;;;2.08;0.85;;;;;;;;;;5059960;28;20039;-74
2022/03/31 02:32:32;;;;;;;2.80;0.88;;;;;;;;;;5061439;28;20040;-73
2022/03/31 02:34:58;;;;;;;3.00;1.05;;;;;;;;;;5039785;28;20060;-74
2022/03/31 02:37:24;;;;;;;3.83;1.13;;;;;;;;;;5030053;28;20119;-74
2022/03/31 02:39:50;;;;;;;3.92;0.88;;;;;;;;;;5050440;28;20044;-74
2022/03/31 02:42:17;;;;;;;3.08;0.80;;;;;;;;;;5065037;28;20037;-74
2022/03/31 02:44:43;;;;;;;2.25;0.80;;;;;;;;;;5063680;28;20132;-74
2022/03/31 02:47:09;;;;;;;2.22;0.75;;;;;;;;;;5064636;28;20079;-74
2022/03/31 02:49:35;;;;;;;2.95;0.90;;;;;;;;;;5063800;28;20041;-74
2022/03/31 02:52:01;;;;;;;3.22;1.00;;;;;;;;;;5064707;28;20040;-74
2022/03/31 02:57:13;;;;;;;3.30;1.08;;;;;;;;;;5063748;28;20552;-74
2022/03/31 02:59:39;;;;;;;1.80;0.80;;;;;;;;;;5046768;28;20052;-74
2022/03/31 03:02:05;;;;;;;2.38;0.90;;;;;;;;;;5064877;28;20055;-74
2022/03/31 03:04:31;;;;;;;3.28;1.00;;;;;;;;;;5063460;28;20077;-74
2022/03/31 03:06:58;;;;;;;3.30;0.90;;;;;;;;;;5064333;28;20516;-74
2022/03/31 03:09:24;;;;;;;2.83;0.80;;;;;;;;;;5063398;28;20041;-74
2022/03/31 03:11:50;;;;;;;1.55;0.77;;;;;;;;;;5063905;28;20072;-74
2022/03/31 03:14:17;;;;;;;3.28;0.80;;;;;;;;;;5063782;28;20047;-74
2022/03/31 03:16:43;;;;;;;2.75;0.90;;;;;;;;;;5044415;28;20084;-74
2022/03/31 03:19:09;;;;;;;2.13;0.82;;;;;;;;;;5044668;28;20045;-74
2022/03/31 03:21:35;;;;;;;2.17;0.80;;;;;;;;;;5063137;28;20048;-73
2022/03/31 03:24:02;;;;;;;1.88;0.77;;;;;;;;;;5064581;28;20052;-74
2022/03/31 03:26:28;;;;;;;2.72;1.00;;;;;;;;;;5044416;28;20045;-74
2022/03/31 03:28:54;;;;;;;3.28;1.10;;;;;;;;;;5028228;28;20044;-74
2022/03/31 03:31:20;;;;;;;2.65;0.90;;;;;;;;;;5060857;28;20094;-74
2022/03/31 03:33:46;;;;;;;2.92;0.80;;;;;;;;;;5063934;28;20135;-74
2022/03/31 03:36:19;;;;;;;3.97;1.00;;;;;;;;;;5062671;28;20082;-74
2022/03/31 03:38:45;;;;;;;2.15;0.82;;;;;;;;;;5064350;28;20048;-74
2022/03/31 03:41:12;;;;;;;2.20;0.80;;;;;;;;;;5046368;28;20064;-74
2022/03/31 03:43:38;;;;;;;2.38;0.90;;;;;;;;;;5044188;28;20053;-73
2022/03/31 03:46:04;;;;;;;2.63;1.00;;;;;;;;;;5056492;28;20041;-73
2022/03/31 03:48:30;;;;;;;2.13;1.02;;;;;;;;;;5047652;28;20033;-73
2022/03/31 03:50:56;;;;;;;4.50;1.33;;;;;;;;;;5046543;28;20036;-73
2022/03/31 03:53:22;;;;;;;3.72;1.50;;;;;;;;;;5047665;28;20656;-73
2022/03/31 03:55:49;;;;;;;2.78;1.27;;;;;;;;;;5062827;28;20052;-73
2022/03/31 03:58:15;;;;;;;2.60;1.17;;;;;;;;;;5064236;28;20039;-73
2022/03/31 04:00:41;;;;;;;2.95;1.10;;;;;;;;;;5062292;28;20046;-73
2022/03/31 04:03:07;;;;;;;3.33;1.10;;;;;;;;;;5063294;28;20040;-73
2022/03/31 04:05:33;;;;;;;3.42;1.38;;;;;;;;;;5061767;28;20036;-73
2022/03/31 04:07:59;;;;;;;3.35;1.20;;;;;;;;;;5047716;28;20452;-73
2022/03/31 04:10:25;;;;;;;3.15;1.35;;;;;;;;;;5061800;28;20115;-73
2022/03/31 04:12:51;;;;;;;3.72;1.60;;;;;;;;;;5063789;28;20633;-73
2022/03/31 04:15:17;;;;;;;3.78;1.58;;;;;;;;;;5046144;28;20040;-73
2022/03/31 04:17:43;;;;;;;3.58;1.40;;;;;;;;;;5063602;28;20675;-73
2022/03/31 04:20:11;;;;;;;3.70;1.30;;;;;;;;;;5062006;28;20075;-73
2022/03/31 04:22:37;;;;;;;3.10;1.40;;;;;;;;;;5063166;28;20055;-73
2022/03/31 04:25:07;;;;;;;4.00;1.50;;;;;;;;;;5045565;28;20097;-73
2022/03/31 04:27:37;;;;;;;3.53;1.70;;;;;;;;;;5063372;28;20045;-73
2022/03/31 04:30:04;;;;;;;4.32;1.67;;;;;;;;;;5062107;28;20639;-73
2022/03/31 04:32:30;;;;;;;3.33;1.55;;;;;;;;;;5047015;28;20407;-73
2022/03/31 04:34:56;;;;;;;3.58;1.50;;;;;;;;;;5062128;28;20049;-73
2022/03/31 04:37:22;;;;;;;3.45;1.48;;;;;;;;;;5062967;28;20047;-73
2022/03/31 04:39:48;;;;;;;4.22;1.63;;;;;;;;;;5061140;28;20040;-73
2022/03/31 04:42:14;;;;;;;4.13;1.80;;;;;;;;;;5062789;28;20063;-73
2022/03/31 04:44:40;;;;;;;3.38;1.58;;;;;;;;;;5061594;28;20044;-73
2022/03/31 04:47:07;;;;;;;4.82;2.00;;;;;;;;;;5062726;28;20041;-73
2022/03/31 04:49:33;;;;;;;4.68;1.83;;;;;;;;;;5061373;28;20036;-73
2022/03/31 04:51:59;;;;;;;4.55;1.92;;;;;;;;;;5045752;28;20029;-73
2022/03/31 04:54:25;;;;;;;4.40;1.85;;;;;;;;;;5044686;28;20037;-73
2022/03/31 04:56:51;;;;;;;4.40;1.92;;;;;;;;;;5060439;28;20054;-73
2022/03/31 04:59:17;;;;;;;3.72;1.70;;;;;;;;;;5060334;28;20127;-73
2022/03/31 05:01:44;;;;;;;3.85;1.85;;;;;;;;;;5042082;28;20553;-73
2022/03/31 05:04:11;;;;;;;4.07;1.95;;;;;;;;;;5042917;28;20045;-73
2022/03/31 05:06:37;;;;;;;4.95;2.00;;;;;;;;;;5061647;28;20044;-73
2022/03/31 05:09:03;;;;;;;4.10;2.00;;;;;;;;;;5045599;28;20043;-73
2022/03/31 05:11:30;;;;;;;4.07;1.77;;;;;;;;;;5061140;28;20584;-73
2022/03/31 05:13:56;;;;;;;4.38;1.83;;;;;;;;;;5062380;28;20041;-73
2022/03/31 05:16:22;;;;;;;3.92;1.58;;;;;;;;;;5060655;28;20048;-73
2022/03/31 05:18:48;;;;;;;4.03;1.75;;;;;;;;;;5045910;28;20140;-73
2022/03/31 05:21:14;;;;;;;3.53;1.77;;;;;;;;;;5060219;28;20082;-73
2022/03/31 05:23:40;;;;;;;4.25;1.70;;;;;;;;;;5045555;28;20045;-74
2022/03/31 05:26:06;;;;;;;4.15;1.70;;;;;;;;;;5043676;28;20579;-73
2022/03/31 05:28:32;;;;;;;3.65;1.58;;;;;;;;;;5059097;28;20033;-73
2022/03/31 05:30:58;;;;;;;3.85;1.85;;;;;;;;;;5049567;28;20036;-73
2022/03/31 05:33:24;;;;;;;5.25;1.70;;;;;;;;;;5045072;28;20094;-73
2022/03/31 05:35:50;;;;;;;3.47;1.70;;;;;;;;;;5064005;28;20051;-73
2022/03/31 05:38:16;;;;;;;4.00;1.75;;;;;;;;;;5028934;28;20107;-74
2022/03/31 05:40:46;;;;;;;4.95;1.50;;;;;;;;;;5037050;28;20044;-73
2022/03/31 05:43:15;;;;;;;3.33;1.40;;;;;;;;;;5026209;28;20049;-73
2022/03/31 05:45:41;;;;;;;2.65;1.27;;;;;;;;;;5048174;28;20118;-73
2022/03/31 05:48:07;;;;;;;3.85;1.40;;;;;;;;;;5037401;28;20040;-74
2022/03/31 05:50:33;;;;;;;3.63;1.30;;;;;;;;;;5060000;28;20682;-74
2022/03/31 05:52:59;;;;;;;2.85;1.20;;;;;;;;;;5040184;28;20155;-73
2022/03/31 05:55:25;;;;;;;4.25;1.33;;;;;;;;;;5031195;28;20120;-73
2022/03/31 05:57:51;;;;;;;4.13;1.15;;;;;;;;;;5056152;28;20036;-73
2022/03/31 06:00:19;;;;;;;3.97;1.77;;;;;;;;;;5055444;28;20471;-74
2022/03/31 06:02:46;;;;;;;2.80;1.27;;;;;;;;;;5031328;28;20036;-74
2022/03/31 06:05:13;;;;;;;2.75;1.30;;;;;;;;;;5045728;28;20125;-74
2022/03/31 06:07:39;;;;;;;4.55;1.10;;;;;;;;;;5019491;28;20041;-73
2022/03/31 06:10:06;;;;;;;4.45;1.20;;;;;;;;;;5043201;28;20037;-73
2022/03/31 06:12:32;;;;;;;3.35;1.30;;;;;;;;;;5056860;28;20732;-74
2022/03/31 06:14:58;;;;;;;3.22;1.23;;;;;;;;;;5047903;28;20040;-72
2022/03/31 06:17:24;;;;;;;2.75;1.08;;;;;;;;;;5050746;28;20048;-73
2022/03/31 06:19:50;;;;;;;3.08;1.30;;;;;;;;;;5041283;28;20079;-72
2022/03/31 06:22:16;;;;;;;3.92;1.30;;;;;;;;;;5030807;28;20059;-73
2022/03/31 06:24:42;;;;;;;2.92;1.00;;;;;;;;;;5045440;28;20038;-73
2022/03/31 06:27:10;;;;;;;3.40;1.05;;;;;;;;;;5033257;28;20052;-73
2022/03/31 06:29:36;;;;;;;2.35;1.08;;;;;;;;;;5056298;28;20037;-73
2022/03/31 06:32:03;;;;;;;2.58;1.00;;;;;;;;;;5046810;28;20033;-73
2022/03/31 06:34:29;;;;;;;3.80;1.10;;;;;;;;;;5046020;28;20049;-73
2022/03/31 06:36:55;;;;;;;3.63;1.10;;;;;;;;;;5048632;28;20114;-73
2022/03/31 06:39:21;;;;;;;2.67;1.00;;;;;;;;;;5043172;28;20871;-73
2022/03/31 06:41:48;;;;;;;2.65;0.90;;;;;;;;;;5034874;28;20058;-73
2022/03/31 06:44:16;;;;;;;1.55;0.75;;;;;;;;;;5037951;28;20048;-73
2022/03/31 06:46:42;;;;;;;1.67;0.90;;;;;;;;;;5064621;28;20421;-73
2022/03/31 06:49:09;;;;;;;2.42;0.95;;;;;;;;;;5064885;28;20634;-73
2022/03/31 06:51:35;;;;;;;3.50;0.95;;;;;;;;;;5046719;28;20052;-73
2022/03/31 06:54:02;;;;;;;2.55;0.93;;;;;;;;;;5049875;28;20086;-73
2022/03/31 06:56:29;;;;;;;1.75;0.80;;;;;;;;;;5048420;28;20074;-73
2022/03/31 06:58:55;;;;;;;3.15;0.90;;;;;;;;;;5049820;28;20045;-73
2022/03/31 07:01:21;;;;;;;2.38;0.90;;;;;;;;;;5048203;28;20044;-73
2022/03/31 07:03:47;;;;;;;1.88;0.90;;;;;;;;;;5045681;28;20131;-73
2022/03/31 07:06:14;;;;;;;3.67;1.10;;;;;;;;;;5055209;28;20049;-73
2022/03/31 07:08:40;;;;;;;2.30;1.00;;;;;;;;;;5044252;28;20116;-73
2022/03/31 07:11:07;;;;;;;2.92;1.00;;;;;;;;;;5057408;28;20677;-73
2022/03/31 07:13:33;;;;;;;1.50;0.73;;;;;;;;;;5063682;28;20075;-73
2022/03/31 07:15:59;;;;;;;3.78;1.00;;;;;;;;;;5062194;28;20505;-73
2022/03/31 07:18:26;;;;;;;2.55;1.00;;;;;;;;;;5063825;28;20128;-73
2022/03/31 07:20:52;;;;;;;2.33;0.90;;;;;;;;;;5061911;28;20131;-73
2022/03/31 07:23:18;;;;;;;2.38;0.90;;;;;;;;;;5063865;28;20093;-73
2022/03/31 07:25:44;;;;;;;1.67;0.85;;;;;;;;;;5062306;28;20051;-73
2022/03/31 07:28:10;;;;;;;3.80;0.93;;;;;;;;;;5063929;28;20123;-73
2022/03/31 07:30:36;;;;;;;4.18;0.93;;;;;;;;;;5046536;28;20541;-73
2022/03/31 07:33:04;;;;;;;2.35;0.80;;;;;;;;;;5064715;28;20048;-73
2022/03/31 07:35:30;;;;;;;1.80;0.80;;;;;;;;;;5062696;28;20106;-73
2022/03/31 07:37:57;;;;;;;2.75;1.10;;;;;;;;;;5047482;28;20620;-73
2022/03/31 07:40:24;;;;;;;2.35;1.13;;;;;;;;;;5061117;28;20036;-73
2022/03/31 07:42:50;;;;;;;2.85;1.30;;;;;;;;;;5047102;28;20036;-73
2022/03/31 07:45:16;;;;;;;3.08;1.20;;;;;;;;;;5054768;28;20128;-73
2022/03/31 07:47:43;;;;;;;2.83;1.17;;;;;;;;;;5027492;28;20045;-73
2022/03/31 07:50:10;;;;;;;1.95;0.90;;;;;;;;;;5050302;28;20090;-73
2022/03/31 07:52:36;;;;;;;1.83;0.90;;;;;;;;;;5047589;28;20429;-73
2022/03/31 07:55:03;;;;;;;2.30;1.00;;;;;;;;;;5045924;28;20036;-73
2022/03/31 07:57:29;;;;;;;2.33;1.00;;;;;;;;;;5047425;28;20086;-73
2022/03/31 07:59:55;;;;;;;2.60;1.20;;;;;;;;;;5046343;28;20114;-73
2022/03/31 08:02:21;;;;;;;2.45;1.05;;;;;;;;;;5063722;28;20048;-73
2022/03/31 08:04:47;;;;;;;2.75;1.27;;;;;;;;;;5062638;28;20051;-73
2022/03/31 08:07:13;;;;;;;2.42;1.00;;;;;;;;;;5063176;28;20553;-72
2022/03/31 08:09:39;;;;;;;2.40;1.20;;;;;;;;;;5062829;28;20040;-73
2022/03/31 08:12:06;;;;;;;1.98;0.90;;;;;;;;;;5063816;28;20037;-73
2022/03/31 08:14:32;;;;;;;2.42;1.00;;;;;;;;;;5062653;28;20468;-73
2022/03/31 08:16:58;;;;;;;2.75;1.00;;;;;;;;;;5046959;28;20098;-73
2022/03/31 08:19:24;;;;;;;3.00;1.00;;;;;;;;;;5045636;28;20482;-73
2022/03/31 08:21:50;;;;;;;2.15;1.02;;;;;;;;;;5063078;28;20052;-73
2022/03/31 08:24:16;;;;;;;2.50;1.08;;;;;;;;;;5062684;28;20485;-73
2022/03/31 08:26:46;;;;;;;2.30;0.93;;;;;;;;;;5062515;28;20044;-73
2022/03/31 08:29:12;;;;;;;2.97;1.00;;;;;;;;;;5046598;28;20460;-73
2022/03/31 08:31:38;;;;;;;2.88;1.00;;;;;;;;;;5062779;28;20086;-73
2022/03/31 08:34:05;;;;;;;1.77;0.80;;;;;;;;;;5062893;28;20036;-73
2022/03/31 08:36:31;;;;;;;2.38;1.00;;;;;;;;;;5061455;28;20131;-73
2022/03/31 08:38:58;;;;;;;2.10;0.95;;;;;;;;;;5046443;28;20055;-73
2022/03/31 08:41:26;;;;;;;2.30;1.00;;;;;;;;;;5061141;28;20040;-73
2022/03/31 08:43:52;;;;;;;2.17;0.90;;;;;;;;;;5062935;28;20051;-73
2022/03/31 08:46:20;;;;;;;2.20;1.00;;;;;;;;;;5044657;28;20124;-73
2022/03/31 08:48:46;;;;;;;2.58;0.90;;;;;;;;;;5042788;28;20041;-73
2022/03/31 08:51:12;;;;;;;1.85;0.73;;;;;;;;;;5042376;28;20102;-73
2022/03/31 08:53:38;;;;;;;1.33;0.70;;;;;;;;;;5026218;28;20068;-73
2022/03/31 08:56:04;;;;;;;2.28;1.00;;;;;;;;;;5040359;28;20048;-73
2022/03/31 08:58:30;;;;;;;2.97;1.15;;;;;;;;;;5043048;28;20044;-73
2022/03/31 09:00:57;;;;;;;2.08;1.20;;;;;;;;;;5056194;28;20119;-73
2022/03/31 09:03:33;;;;;;;2.63;1.20;;;;;;;;;;5046306;28;20075;-73
2022/03/31 09:05:59;;;;;;;3.22;1.23;;;;;;;;;;5061062;28;20052;-73
2022/03/31 09:08:25;;;;;;;2.20;1.05;;;;;;;;;;5062751;28;20085;-73
2022/03/31 09:10:55;;;;;;;2.80;1.23;;;;;;;;;;5060640;28;20040;-73
2022/03/31 09:13:40;;;;;;;2.97;1.30;;;;;;;;;;5062218;28;20036;-73
2022/03/31 09:16:11;;;;;;;3.10;1.33;;;;;;;;;;5045058;28;20408;-73
2022/03/31 09:18:38;;;;;;;3.33;1.35;;;;;;;;;;5062462;28;20676;-73
2022/03/31 09:21:05;;;;;;;2.92;1.30;;;;;;;;;;5060569;28;20040;-72
2022/03/31 09:23:32;;;;;;;4.22;1.88;;;;;;;;;;5061835;28;20048;-73
2022/03/31 09:26:05;;;;;;;3.28;1.60;;;;;;;;;;5059611;28;20052;-73
2022/03/31 09:28:31;;;;;;;3.28;1.58;;;;;;;;;;5060584;28;20048;-74
2022/03/31 09:30:57;;;;;;;4.40;2.00;;;;;;;;;;5046751;28;20029;-72
2022/03/31 09:33:33;;;;;;;4.22;1.90;;;;;;;;;;5025208;28;20622;-73
2022/03/31 09:36:06;;;;;;;4.07;2.10;;;;;;;;;;5039318;28;20057;-73
2022/03/31 09:38:35;;;;;;;5.17;3.10;;;;;;;;;;5062223;28;20482;-73
2022/03/31 09:41:03;;;;;;;5.07;2.85;;;;;;;;;;5043643;28;20407;-73
2022/03/31 09:43:37;;;;;;;4.40;2.30;;;;;;;;;;5061695;28;20075;-73
2022/03/31 09:46:03;;;;;;;4.32;2.30;;;;;;;;;;5059469;28;20044;-73
2022/03/31 09:48:29;;;;;;;4.22;1.90;;;;;;;;;;5045629;28;20048;-73
2022/03/31 09:50:55;;;;;;;3.35;1.65;;;;;;;;;;5044085;28;20072;-72
2022/03/31 09:53:22;;;;;;;3.72;1.75;;;;;;;;;;5061819;28;20107;-72
2022/03/31 09:55:48;;;;;;;3.03;1.50;;;;;;;;;;5060395;28;20064;-73
2022/03/31 09:58:18;;;;;;;3.33;1.40;;;;;;;;;;5061926;28;20367;-73
2022/03/31 10:00:45;;;;;;;3.78;1.80;;;;;;;;;;5048708;28;20126;-73
2022/03/31 10:03:15;;;;;;;4.75;1.55;;;;;;;;;;5042197;28;20521;-73
2022/03/31 10:05:42;;;;;;;3.47;1.63;;;;;;;;;;5025091;28;20048;-73
2022/03/31 10:08:10;;;;;;;3.95;1.90;;;;;;;;;;5042022;28;20052;-73
2022/03/31 10:10:37;;;;;;;3.80;1.85;;;;;;;;;;5051624;28;20048;-72
2022/03/31 10:13:15;;;;;;;4.40;2.22;;;;;;;;;;5061865;28;20040;-73
2022/03/31 10:15:41;;;;;;;5.32;3.05;;;;;;;;;;5060232;28;20041;-73
2022/03/31 10:18:07;;;;;;;4.70;2.70;;;;;;;;;;5062237;28;20210;-72
2022/03/31 10:20:33;;;;;;;4.50;2.45;;;;;;;;;;5060722;28;20123;-73
2022/03/31 10:25:45;;;;;;;4.93;2.80;;;;;;;;;;5059712;28;20049;-73
2022/03/31 10:28:16;;;;;;;4.70;2.30;;;;;;;;;;5061835;28;20717;-73
2022/03/31 10:31:02;;;;;;;4.55;2.50;;;;;;;;;;5060031;28;20041;-73
2022/03/31 10:33:37;;;;;;;4.85;2.60;;;;;;;;;;5044852;28;20056;-73
2022/03/31 10:36:09;;;;;;;4.63;2.40;;;;;;;;;;5045759;28;20072;-73
2022/03/31 10:38:36;;;;;;;4.65;2.58;;;;;;;;;;5041808;28;20128;-72
2022/03/31 10:41:13;;;;;;;5.10;2.70;;;;;;;;;;5039736;28;20041;-73
2022/03/31 10:43:46;;;;;;;5.20;2.80;;;;;;;;;;5024953;28;20109;-73
2022/03/31 10:46:17;;;;;;;4.90;2.57;;;;;;;;;;5057024;28;20367;-73
2022/03/31 10:48:50;;;;;;;4.55;2.50;;;;;;;;;;5044970;28;20032;-72
2022/03/31 10:51:16;;;;;;;4.75;2.53;;;;;;;;;;5059773;28;20029;-72
2022/03/31 10:53:48;;;;;;;4.18;2.13;;;;;;;;;;5061803;28;20777;-73
2022/03/31 10:56:19;;;;;;;3.80;1.92;;;;;;;;;;5060712;28;20044;-72
2022/03/31 10:58:45;;;;;;;3.85;1.90;;;;;;;;;;5048730;28;20095;-72
2022/03/31 11:01:12;;;;;;;3.38;1.77;;;;;;;;;;5063079;28;20043;-72
2022/03/31 11:03:38;;;;;;;3.95;1.90;;;;;;;;;;5065017;28;20051;-72
2022/03/31 11:06:07;;;;;;;4.20;1.90;;;;;;;;;;5046953;28;20086;-73
2022/03/31 11:08:41;;;;;;;3.85;1.80;;;;;;;;;;5064679;28;20127;-72
2022/03/31 11:11:08;;;;;;;3.75;1.60;;;;;;;;;;5063395;28;20037;-73
2022/03/31 11:13:37;;;;;;;3.45;1.58;;;;;;;;;;5064733;28;20040;-73
2022/03/31 11:16:05;;;;;;;3.30;1.40;;;;;;;;;;5048635;28;20044;-73
2022/03/31 11:18:31;;;;;;;4.15;1.88;;;;;;;;;;5028442;28;20049;-73
2022/03/31 11:21:01;;;;;;;3.92;1.67;;;;;;;;;;5058162;28;20047;-73
2022/03/31 11:23:28;;;;;;;3.30;1.60;;;;;;;;;;5047812;28;20044;-73
2022/03/31 11:25:54;;;;;;;3.30;1.50;;;;;;;;;;5062385;28;20662;-73
2022/03/31 11:28:20;;;;;;;3.40;1.58;;;;;;;;;;5047977;28;20036;-73
2022/03/31 11:30:48;;;;;;;3.95;1.50;;;;;;;;;;5046610;28;20115;-73
2022/03/31 11:33:14;;;;;;;4.80;1.40;;;;;;;;;;5063408;28;20063;-73
2022/03/31 11:35:41;;;;;;;2.95;1.40;;;;;;;;;;5061821;28;20644;-73
2022/03/31 11:38:10;;;;;;;3.30;1.42;;;;;;;;;;5064348;28;20694;-73
2022/03/31 11:40:42;;;;;;;3.63;1.60;;;;;;;;;;5045288;28;20617;-73
2022/03/31 11:43:09;;;;;;;3.05;1.50;;;;;;;;;;5047678;28;20044;-73
2022/03/31 11:45:37;;;;;;;3.75;1.40;;;;;;;;;;5046197;28;20073;-73
2022/03/31 11:48:05;;;;;;;3.65;1.50;;;;;;;;;;5063979;28;20037;-73
2022/03/31 11:50:31;;;;;;;3.50;1.58;;;;;;;;;;5057946;28;20044;-72
2022/03/31 11:52:58;;;;;;;3.70;1.58;;;;;;;;;;5044526;28;20048;-73
2022/03/31 11:55:24;;;;;;;3.05;1.38;;;;;;;;;;5052147;28;20047;-73
2022/03/31 11:58:08;;;;;;;3.42;1.52;;;;;;;;;;5064237;28;20473;-73
2022/03/31 12:00:35;;;;;;;3.08;1.40;;;;;;;;;;5063413;28;20564;-73
2022/03/31 12:03:09;;;;;;;3.45;1.55;;;;;;;;;;5064212;28;20587;-73
2022/03/31 12:05:35;;;;;;;;;;;;;;;;;;5062934;28;20040;-73
2022/03/31 12:08:01;;;;;;;3.60;1.60;;;;;;;;;;5063078;28;20215;-73
2022/03/31 12:10:29;;;;;;;3.45;1.50;;;;;;;;;;5045793;28;20045;-73
2022/03/31 12:12:56;;;;;;;3.67;1.75;;;;;;;;;;5063994;28;20040;-73
2022/03/31 12:15:30;;;;;;;3.50;1.65;;;;;;;;;;5045925;28;20041;-73
2022/03/31 12:18:16;;;;;;;3.67;1.75;;;;;;;;;;5063891;28;20617;-73
2022/03/31 12:20:43;;;;;;;3.78;1.70;;;;;;;;;;5061405;28;20032;-72
2022/03/31 12:23:25;;;;;;;3.20;1.30;;;;;;;;;;5046427;28;20522;-74
2022/03/31 12:25:51;;;;;;;5.18;1.65;;;;;;;;;;5033360;28;20126;-74
2022/03/31 12:28:20;;;;;;;4.15;1.73;;;;;;;;;;5013162;28;20226;-73
2022/03/31 12:30:46;;;;;;;4.32;1.80;;;;;;;;;;5039491;28;20097;-73
2022/03/31 12:33:18;;;;;;;4.05;1.70;;;;;;;;;;5032494;28;20067;-73
2022/03/31 12:35:51;;;;;;;4.25;2.03;;;;;;;;;;5027438;28;20098;-73
2022/03/31 12:38:17;;;;;;;4.57;2.00;;;;;;;;;;5031108;28;20032;-73
2022/03/31 12:40:43;;;;;;;4.25;1.95;;;;;;;;;;5026035;28;20037;-73
2022/03/31 12:43:10;;;;;;;4.30;1.80;;;;;;;;;;5035292;28;20647;-73
2022/03/31 12:45:36;;;;;;;4.07;1.88;;;;;;;;;;5057067;28;20413;-73
2022/03/31 12:48:09;;;;;;;4.57;1.90;;;;;;;;;;5057325;28;20051;-73
2022/03/31 12:50:38;;;;;;;4.30;1.80;;;;;;;;;;5050114;28;20036;-73
2022/03/31 12:53:04;;;;;;;3.60;1.90;;;;;;;;;;5032569;28;20406;-73
2022/03/31 12:55:32;;;;;;;4.40;2.30;;;;;;;;;;5019118;28;20036;-73
2022/03/31 12:58:02;;;;;;;8.57;2.00;;;;;;;;;;5040063;28;20033;-71
2022/03/31 13:00:29;;;;;;;7.53;2.10;;;;;;;;;;5043421;28;20730;-74
2022/03/31 13:02:57;;;;;;;7.68;2.60;;;;;;;;;;5045692;28;20048;-74
2022/03/31 13:05:24;;;;;;;8.25;2.42;;;;;;;;;;5043630;28;20041;-72
2022/03/31 13:07:52;;;;;;;10.55;2.70;;;;;;;;;;5043664;28;20072;-75
2022/03/31 13:10:18;;;;;;;5.95;2.78;;;;;;;;;;5030897;28;20045;-74
2022/03/31 13:12:44;;;;;;;7.55;3.20;;;;;;;;;;5042267;28;20037;-75
2022/03/31 13:15:13;;;;;;;12.82;3.45;;;;;;;;;;5049268;28;20545;-75
2022/03/31 13:17:40;;;;;;;12.25;3.35;;;;;;;;;;5062719;28;20783;-75
2022/03/31 13:20:06;;;;;;;11.75;2.88;;;;;;;;;;5061742;28;20040;-75
2022/03/31 13:22:33;;;;;;;13.40;3.00;;;;;;;;;;5062863;28;20553;-72
2022/03/31 13:24:59;;;;;;;7.97;2.92;;;;;;;;;;5055534;28;20037;-73
2022/03/31 13:27:26;;;;;;;6.32;2.92;;;;;;;;;;5054198;28;20433;-72
2022/03/31 13:29:53;;;;;;;12.20;3.17;;;;;;;;;;5056583;28;20033;-73
2022/03/31 13:32:19;;;;;;;9.50;2.53;;;;;;;;;;5042577;28;20040;-73
2022/03/31 13:34:46;;;;;;;8.65;2.45;;;;;;;;;;5042426;28;20053;-73
2022/03/31 13:37:13;;;;;;;8.18;2.55;;;;;;;;;;5056221;28;20056;-73
2022/03/31 13:39:39;;;;;;;6.10;2.33;;;;;;;;;;5027600;28;20053;-73
2022/03/31 13:42:06;;;;;;;7.90;2.28;;;;;;;;;;5040125;28;20029;-73
2022/03/31 13:44:32;;;;;;;7.68;2.60;;;;;;;;;;5043645;28;20049;-73
2022/03/31 13:46:59;;;;;;;5.75;2.40;;;;;;;;;;5048988;28;20051;-73
2022/03/31 13:49:25;;;;;;;7.97;2.28;;;;;;;;;;5042290;28;20414;-73
2022/03/31 13:51:52;;;;;;;5.15;2.30;;;;;;;;;;5044759;28;20032;-73
2022/03/31 13:54:19;;;;;;;5.03;2.10;;;;;;;;;;5060557;28;20587;-73
2022/03/31 13:56:45;;;;;;;5.90;2.50;;;;;;;;;;5047213;28;20049;-73
2022/03/31 14:01:58;;;;;;;6.38;2.22;;;;;;;;;;5041932;28;20045;-72
2022/03/31 14:04:24;;;;;;;5.53;2.70;;;;;;;;;;5053631;28;20044;-73
2022/03/31 14:06:51;;;;;;;5.00;2.40;;;;;;;;;;5061808;28;20076;-73
2022/03/31 14:09:19;;;;;;;6.03;2.25;;;;;;;;;;5061331;28;20083;-72
2022/03/31 14:11:46;;;;;;;6.13;2.25;;;;;;;;;;5025114;28;20041;-73
2022/03/31 14:14:13;;;;;;;6.00;2.47;;;;;;;;;;5025139;28;20044;-73
2022/03/31 14:16:40;;;;;;;4.97;2.45;;;;;;;;;;5041903;28;20051;-72
2022/03/31 14:19:07;;;;;;;5.50;2.28;;;;;;;;;;5025215;28;20072;-72
2022/03/31 14:21:33;;;;;;;4.70;2.13;;;;;;;;;;5060586;28;20379;-72
2022/03/31 14:24:00;;;;;;;5.63;2.10;;;;;;;;;;5061800;28;20788;-73
2022/03/31 14:26:26;;;;;;;5.63;2.00;;;;;;;;;;5042981;28;20048;-73
2022/03/31 14:28:53;;;;;;;5.18;2.00;;;;;;;;;;5060152;28;20129;-72
2022/03/31 14:31:21;;;;;;;5.13;1.90;;;;;;;;;;5060809;28;20227;-72
2022/03/31 14:33:48;;;;;;;7.07;2.15;;;;;;;;;;5063901;28;20052;-72
2022/03/31 14:36:15;;;;;;;5.57;2.13;;;;;;;;;;5045586;28;20067;-72
2022/03/31 14:38:41;;;;;;;4.40;1.83;;;;;;;;;;5043754;28;20064;-71
2022/03/31 14:41:11;;;;;;;5.15;2.00;;;;;;;;;;5041952;28;20173;-72
2022/03/31 14:43:38;;;;;;;4.60;1.95;;;;;;;;;;5063318;28;20525;-71
2022/03/31 14:46:04;;;;;;;5.95;1.90;;;;;;;;;;5053228;28;20098;-71
2022/03/31 14:48:30;;;;;;;4.18;1.85;;;;;;;;;;5043700;28;20077;-71
2022/03/31 14:50:56;;;;;;;3.83;1.88;;;;;;;;;;5036959;28;20626;-71
2022/03/31 14:53:22;;;;;;;6.18;1.70;;;;;;;;;;5043504;28;20132;-72
2022/03/31 14:55:48;;;;;;;5.57;1.95;;;;;;;;;;5053770;28;20625;-72
2022/03/31 14:58:14;;;;;;;3.42;1.58;;;;;;;;;;5048388;28;20123;-71
2022/03/31 15:00:41;;;;;;;4.57;1.50;;;;;;;;;;5047483;28;20178;-71
2022/03/31 15:03:07;;;;;;;4.60;1.80;;;;;;;;;;5065344;28;20641;-71